Time;durP1;ratioP1;P1;durP2;ratioP2;P2;SDS_P1;SDS_P2;PMS_P1;PMS_P2;Temp;Humidity;BMP_temperature;BMP_pressure;BME280_temperature;BME280_humidity;BME280_pressure;Samples;Min_cycle;Max_cycle;Signal;HPM_P1;HPM_P2
2022/10/02 00:02:13;;;;;;;6.20;1.65;;;9.50;99.90;;;;;;4970407;28;20215;-67
2022/10/02 00:04:52;;;;;;;1.55;1.08;;;12.70;99.90;;;;;;4970073;28;20203;-65
2022/10/02 00:07:23;;;;;;;7.00;1.88;;;12.80;99.90;;;;;;4985455;28;20207;-65
2022/10/02 00:09:53;;;;;;;4.95;1.45;;;12.80;99.90;;;;;;4966512;28;20202;-65
2022/10/02 00:12:24;;;;;;;5.03;1.60;;;12.80;99.90;;;;;;4978975;28;20230;-66
2022/10/02 00:14:55;;;;;;;2.78;1.27;;;12.80;99.90;;;;;;4949931;28;21238;-65
2022/10/02 00:17:25;;;;;;;2.03;1.17;;;12.80;99.90;;;;;;4976394;28;20277;-65
2022/10/02 00:19:55;;;;;;;5.10;1.55;;;12.80;99.90;;;;;;4969559;28;20230;-66
2022/10/02 00:22:42;;;;;;;4.35;1.20;;;12.90;99.90;;;;;;4974549;28;20199;-66
2022/10/02 00:25:16;;;;;;;2.30;0.80;;;12.70;99.90;;;;;;4965262;28;20211;-66
2022/10/02 00:28:10;;;;;;;4.80;1.80;;;12.80;99.90;;;;;;4958281;28;20222;-65
2022/10/02 00:30:45;;;;;;;5.43;1.33;;;12.70;99.90;;;;;;4934650;28;20757;-66
2022/10/02 00:33:24;;;;;;;9.30;1.70;;;12.70;99.90;;;;;;4961751;28;20361;-65
2022/10/02 00:36:06;;;;;;;6.28;1.60;;;12.70;99.90;;;;;;4960684;28;20204;-68
2022/10/02 00:38:44;;;;;;;5.95;1.70;;;12.70;99.90;;;;;;4966916;28;20433;-65
2022/10/02 00:41:48;;;;;;;10.05;1.75;;;12.70;99.90;;;;;;4972019;28;20246;-65
2022/10/02 00:44:38;;;;;;;6.65;1.60;;;12.70;99.90;;;;;;4969676;28;21233;-66
2022/10/02 00:47:13;;;;;;;3.25;1.27;;;12.70;99.90;;;;;;4946602;28;20221;-65
2022/10/02 00:49:55;;;;;;;3.33;1.10;;;12.50;99.90;;;;;;4962643;28;20203;-65
2022/10/02 00:52:43;;;;;;;4.28;1.75;;;12.70;99.90;;;;;;4962424;28;20207;-65
2022/10/02 00:55:25;;;;;;;3.30;1.17;;;12.70;99.90;;;;;;4971832;28;20214;-66
2022/10/02 00:58:03;;;;;;;3.35;1.40;;;12.80;99.90;;;;;;4954833;28;20208;-66
2022/10/02 01:00:30;;;;;;;4.43;1.60;;;12.90;99.90;;;;;;4921291;28;20227;-66
2022/10/02 01:03:15;;;;;;;5.97;1.50;;;12.70;99.90;;;;;;4970746;28;22669;-65
2022/10/02 01:05:42;;;;;;;7.28;1.20;;;12.90;99.90;;;;;;4970049;28;20664;-65
2022/10/02 01:08:10;;;;;;;5.93;1.65;;;12.60;99.90;;;;;;4960960;28;20202;-66
2022/10/02 01:10:38;;;;;;;6.40;1.90;;;12.70;99.90;;;;;;4952549;28;20214;-66
2022/10/02 01:13:06;;;;;;;4.18;1.17;;;12.80;99.90;;;;;;4978539;28;20235;-65
2022/10/02 01:15:36;;;;;;;2.15;1.10;;;12.70;99.90;;;;;;4971343;28;20213;-65
2022/10/02 01:18:03;;;;;;;3.65;1.20;;;12.90;99.90;;;;;;4952769;28;20219;-66
2022/10/02 01:20:36;;;;;;;7.47;1.52;;;12.60;99.90;;;;;;4969475;28;20226;-66
2022/10/02 01:23:16;;;;;;;6.40;1.70;;;12.60;99.90;;;;;;4964584;28;20257;-65
2022/10/02 01:25:45;;;;;;;3.90;1.00;;;12.60;99.90;;;;;;4963459;28;20203;-67
2022/10/02 01:28:12;;;;;;;8.00;1.70;;;12.00;99.90;;;;;;4962903;28;20324;-66
2022/10/02 01:30:42;;;;;;;5.63;1.70;;;12.60;99.90;;;;;;4966206;28;20214;-65
2022/10/02 01:33:10;;;;;;;4.03;1.35;;;12.60;99.90;;;;;;4954266;28;20322;-65
2022/10/02 01:35:39;;;;;;;2.88;1.48;;;12.70;99.90;;;;;;4982624;28;20199;-65
2022/10/02 01:38:08;;;;;;;6.47;1.80;;;12.60;99.90;;;;;;4954418;28;20223;-66
2022/10/02 01:40:37;;;;;;;6.90;1.52;;;12.80;99.90;;;;;;4974751;28;20238;-65
2022/10/02 01:43:08;;;;;;;5.70;2.25;;;12.60;99.90;;;;;;4967228;28;20206;-66
2022/10/02 01:45:59;;;;;;;6.28;1.48;;;12.70;99.90;;;;;;4967900;28;20200;-65
2022/10/02 01:48:39;;;;;;;2.85;1.27;;;12.70;99.90;;;;;;4950489;28;20211;-65
2022/10/02 01:51:25;;;;;;;10.77;1.88;;;12.70;99.90;;;;;;4970675;28;20206;-66
2022/10/02 01:54:03;;;;;;;9.65;2.00;;;12.90;99.90;;;;;;4966707;28;20206;-65
2022/10/02 01:56:38;;;;;;;6.13;1.77;;;12.80;99.90;;;;;;4986499;28;20203;-66
2022/10/02 01:59:15;;;;;;;4.68;1.80;;;12.60;99.90;;;;;;4955021;28;20202;-66
2022/10/02 02:01:51;;;;;;;7.22;2.10;;;12.80;99.90;;;;;;4973281;28;20222;-66
2022/10/02 02:04:23;;;;;;;7.70;1.50;;;13.40;99.90;;;;;;4962985;28;20216;-66
2022/10/02 02:06:57;;;;;;;4.07;1.70;;;12.80;99.90;;;;;;4973115;28;20199;-66
2022/10/02 02:09:30;;;;;;;5.65;2.08;;;13.80;99.90;;;;;;4962545;28;20611;-65
2022/10/02 02:12:03;;;;;;;5.68;1.48;;;12.70;99.90;;;;;;4982566;28;20230;-65
2022/10/02 02:14:36;;;;;;;9.13;1.88;;;12.90;99.90;;;;;;4967208;28;20200;-65
2022/10/02 02:17:08;;;;;;;5.57;1.77;;;13.00;99.90;;;;;;4966634;28;21093;-65
2022/10/02 02:19:39;;;;;;;3.63;1.88;;;12.90;99.90;;;;;;4960562;28;20207;-65
2022/10/02 02:22:11;;;;;;;3.28;1.40;;;13.00;99.90;;;;;;4978301;28;20350;-66
2022/10/02 02:24:41;;;;;;;3.17;1.73;;;12.90;99.90;;;;;;4964055;28;20195;-65
2022/10/02 02:27:13;;;;;;;6.32;1.52;;;12.90;99.90;;;;;;4988800;28;20199;-65
2022/10/02 02:29:44;;;;;;;2.20;1.33;;;12.90;99.90;;;;;;4956743;28;20643;-66
2022/10/02 02:32:16;;;;;;;6.93;2.97;;;13.00;99.90;;;;;;4962641;28;20208;-65
2022/10/02 02:34:49;;;;;;;4.00;1.35;;;12.90;99.90;;;;;;4947415;28;20260;-65
2022/10/02 02:37:20;;;;;;;4.00;1.25;;;12.90;99.90;;;;;;4978865;28;20720;-65
2022/10/02 02:39:52;;;;;;;6.68;1.55;;;12.80;99.90;;;;;;4949409;28;20204;-65
2022/10/02 02:42:21;;;;;;;6.97;1.90;;;12.80;99.90;;;;;;4973973;28;20195;-65
2022/10/02 02:44:54;;;;;;;6.03;1.50;;;12.80;99.90;;;;;;4977641;28;20676;-65
2022/10/02 02:47:27;;;;;;;5.53;1.48;;;12.80;99.90;;;;;;4970277;28;20199;-66
2022/10/02 02:49:59;;;;;;;6.18;1.50;;;12.70;99.90;;;;;;4943919;28;20263;-65
2022/10/02 02:52:29;;;;;;;4.68;1.27;;;12.70;99.90;;;;;;4975579;28;20565;-65
2022/10/02 02:55:02;;;;;;;3.25;1.25;;;12.70;99.90;;;;;;4961178;28;20222;-65
2022/10/02 02:57:34;;;;;;;3.85;1.27;;;12.60;99.90;;;;;;4966482;28;21003;-65
2022/10/02 03:00:05;;;;;;;4.95;1.10;;;12.70;99.90;;;;;;4963480;28;20223;-65
2022/10/02 03:02:32;;;;;;;3.88;1.52;;;12.60;99.90;;;;;;4974172;28;20198;-65
2022/10/02 03:04:59;;;;;;;5.07;2.05;;;12.70;99.90;;;;;;4942366;28;20345;-65
2022/10/02 03:07:26;;;;;;;6.88;1.70;;;12.60;99.90;;;;;;4970257;28;20681;-65
2022/10/02 03:10:01;;;;;;;4.20;1.38;;;12.10;99.90;;;;;;4960918;28;20677;-65
2022/10/02 03:12:37;;;;;;;4.40;1.52;;;12.60;99.90;;;;;;4985734;28;20340;-66
2022/10/02 03:15:19;;;;;;;9.23;1.77;;;12.80;99.90;;;;;;4965636;28;20211;-65
2022/10/02 03:18:03;;;;;;;7.60;1.77;;;12.60;99.90;;;;;;4983329;28;20203;-66
2022/10/02 03:20:40;;;;;;;10.23;2.22;;;12.60;99.90;;;;;;4934035;28;20337;-66
2022/10/02 03:23:16;;;;;;;4.28;2.05;;;12.60;99.90;;;;;;4977861;28;20226;-66
2022/10/02 03:25:50;;;;;;;6.68;2.47;;;12.60;99.90;;;;;;4981569;28;20576;-65
2022/10/02 03:28:21;;;;;;;7.20;2.40;;;12.80;99.90;;;;;;4981224;28;20195;-66
2022/10/02 03:30:51;;;;;;;8.05;2.30;;;12.60;99.90;;;;;;4967741;28;20314;-66
2022/10/02 03:33:19;;;;;;;6.03;2.38;;;12.60;99.90;;;;;;4986714;28;20199;-65
2022/10/02 03:35:46;;;;;;;4.75;2.30;;;12.60;99.90;;;;;;4977039;28;20207;-65
2022/10/02 03:38:14;;;;;;;6.57;2.30;;;12.70;99.90;;;;;;4954751;28;20215;-65
2022/10/02 03:40:41;;;;;;;11.40;2.30;;;12.70;99.90;;;;;;4969393;28;20230;-65
2022/10/02 03:43:09;;;;;;;8.57;2.72;;;12.70;99.90;;;;;;4971097;28;20210;-65
2022/10/02 03:45:36;;;;;;;6.53;2.83;;;12.50;99.90;;;;;;4967937;28;20207;-66
2022/10/02 03:48:04;;;;;;;7.88;2.47;;;12.80;99.90;;;;;;4978454;28;20207;-65
2022/10/02 03:50:31;;;;;;;10.50;3.42;;;12.50;99.90;;;;;;4967132;28;20202;-65
2022/10/02 03:52:58;;;;;;;8.00;3.03;;;12.70;99.90;;;;;;4960825;28;20219;-66
2022/10/02 03:55:38;;;;;;;9.80;2.80;;;12.70;99.90;;;;;;4967089;28;20203;-66
2022/10/02 03:58:13;;;;;;;5.30;2.63;;;12.70;99.90;;;;;;4955172;28;20209;-65
2022/10/02 04:00:46;;;;;;;11.23;2.60;;;12.70;99.90;;;;;;4959606;28;20739;-65
2022/10/02 04:03:20;;;;;;;8.50;2.92;;;12.70;99.90;;;;;;4955432;28;20207;-65
2022/10/02 04:05:51;;;;;;;7.07;3.00;;;12.80;99.90;;;;;;4960504;28;20196;-66
2022/10/02 04:08:20;;;;;;;4.78;2.13;;;12.80;99.90;;;;;;4936033;28;20214;-65
2022/10/02 04:10:54;;;;;;;7.32;2.20;;;12.80;99.90;;;;;;4974063;28;20214;-66
2022/10/02 04:13:28;;;;;;;4.32;2.25;;;12.80;99.90;;;;;;4975850;28;20231;-66
2022/10/02 04:16:04;;;;;;;9.90;2.42;;;12.80;99.90;;;;;;4977863;28;20351;-65
2022/10/02 04:18:37;;;;;;;6.97;2.53;;;12.80;99.90;;;;;;4975775;28;20309;-66
2022/10/02 04:21:10;;;;;;;8.82;2.63;;;12.90;99.90;;;;;;4975493;28;20218;-65
2022/10/02 04:23:43;;;;;;;7.10;2.50;;;12.80;99.90;;;;;;4953824;28;20207;-65
2022/10/02 04:26:17;;;;;;;9.00;2.85;;;12.80;99.90;;;;;;4982344;28;20701;-66
2022/10/02 04:28:50;;;;;;;10.93;2.72;;;12.80;99.90;;;;;;4978536;28;20207;-66
2022/10/02 04:31:17;;;;;;;6.97;2.38;;;13.00;99.90;;;;;;4976943;28;20832;-66
2022/10/02 04:33:45;;;;;;;7.72;2.30;;;12.80;99.90;;;;;;4991233;28;20572;-65
2022/10/02 04:36:28;;;;;;;9.18;2.22;;;10.20;99.90;;;;;;4954269;28;20200;-66
2022/10/02 04:39:21;;;;;;;8.10;2.60;;;12.90;99.90;;;;;;4962316;28;20692;-65
2022/10/02 04:42:14;;;;;;;8.98;2.50;;;12.90;99.90;;;;;;4972064;28;20322;-66
2022/10/02 04:44:53;;;;;;;8.82;2.88;;;12.90;99.90;;;;;;4971289;28;20235;-67
2022/10/02 04:47:50;;;;;;;8.50;2.72;;;12.90;99.90;;;;;;4959376;28;20208;-65
2022/10/02 04:50:33;;;;;;;13.18;2.65;;;13.00;99.90;;;;;;4966332;28;20214;-65
2022/10/02 04:53:21;;;;;;;14.63;2.80;;;13.00;99.90;;;;;;4948538;28;20211;-65
2022/10/02 04:56:10;;;;;;;9.15;3.03;;;13.10;99.90;;;;;;4984671;28;20195;-66
2022/10/02 04:58:53;;;;;;;8.35;2.47;;;13.00;99.90;;;;;;4956748;28;20204;-66
2022/10/02 05:01:27;;;;;;;10.50;2.72;;;13.00;99.90;;;;;;4983798;28;20620;-66
2022/10/02 05:04:21;;;;;;;14.70;3.55;;;13.10;99.90;;;;;;4968830;28;20190;-65
2022/10/02 05:07:13;;;;;;;8.23;2.63;;;12.90;99.90;;;;;;4962779;28;20202;-66
2022/10/02 05:09:47;;;;;;;9.02;2.55;;;13.10;99.90;;;;;;4962078;28;20207;-66
2022/10/02 05:12:37;;;;;;;5.70;2.10;;;13.10;99.90;;;;;;4986983;28;20235;-66
2022/10/02 05:15:19;;;;;;;9.85;2.65;;;13.20;99.90;;;;;;4958435;28;20223;-65
2022/10/02 05:18:07;;;;;;;13.10;3.15;;;13.20;99.90;;;;;;4977611;28;20202;-66
2022/10/02 05:21:00;;;;;;;4.93;2.50;;;13.10;99.90;;;;;;4980311;28;20661;-65
2022/10/02 05:23:43;;;;;;;16.73;2.63;;;13.20;99.90;;;;;;4966543;28;20195;-66
2022/10/02 05:26:32;;;;;;;9.85;3.08;;;13.30;99.90;;;;;;4979906;28;20910;-66
2022/10/02 05:29:25;;;;;;;11.35;2.50;;;13.30;99.90;;;;;;4974794;28;21039;-66
2022/10/02 05:32:05;;;;;;;10.63;2.65;;;11.60;99.90;;;;;;4969704;28;20199;-66
2022/10/02 05:34:54;;;;;;;6.35;2.05;;;12.50;99.90;;;;;;4963860;28;20753;-65
2022/10/02 05:37:37;;;;;;;5.03;2.00;;;13.30;99.90;;;;;;4967698;28;20207;-66
2022/10/02 05:40:13;;;;;;;12.25;2.63;;;13.20;99.90;;;;;;4945434;28;21144;-66
2022/10/02 05:42:50;;;;;;;9.57;2.72;;;13.20;99.90;;;;;;4977776;28;20227;-66
2022/10/02 05:45:25;;;;;;;7.93;2.72;;;13.30;99.90;;;;;;4965985;28;20214;-66
2022/10/02 05:47:55;;;;;;;4.80;2.33;;;13.50;99.90;;;;;;4973937;28;20194;-67
2022/10/02 05:50:26;;;;;;;4.70;2.13;;;13.30;99.90;;;;;;4941639;28;20227;-66
2022/10/02 05:52:58;;;;;;;7.20;1.92;;;13.40;99.90;;;;;;4978046;28;20204;-67
2022/10/02 05:55:34;;;;;;;5.05;2.45;;;13.40;99.90;;;;;;4937039;28;20222;-66
2022/10/02 05:58:06;;;;;;;5.93;2.13;;;13.40;99.90;;;;;;4986493;28;20715;-66
2022/10/02 06:00:38;;;;;;;9.10;2.50;;;13.40;99.90;;;;;;4972326;28;20225;-66
2022/10/02 06:03:12;;;;;;;7.57;2.47;;;13.40;99.90;;;;;;4961805;28;20747;-66
2022/10/02 06:05:47;;;;;;;6.57;2.22;;;13.40;99.90;;;;;;4969963;28;20207;-66
2022/10/02 06:08:19;;;;;;;5.10;1.83;;;13.60;99.90;;;;;;4940321;28;20307;-66
2022/10/02 06:10:51;;;;;;;3.50;1.55;;;13.40;99.90;;;;;;4945697;28;20215;-65
2022/10/02 06:13:24;;;;;;;6.88;2.15;;;13.40;99.90;;;;;;4978972;28;20318;-67
2022/10/02 06:15:56;;;;;;;10.10;2.58;;;13.40;99.90;;;;;;4973235;28;20202;-66
2022/10/02 06:18:26;;;;;;;11.90;2.80;;;13.40;99.90;;;;;;4972489;28;20341;-66
2022/10/02 06:20:56;;;;;;;9.10;2.35;;;13.50;99.90;;;;;;4963199;28;20250;-66
2022/10/02 06:23:26;;;;;;;8.18;2.80;;;13.70;99.90;;;;;;4969393;28;21057;-67
2022/10/02 06:25:58;;;;;;;6.07;2.17;;;13.40;99.90;;;;;;4947130;28;20204;-66
2022/10/02 06:28:33;;;;;;;9.23;2.85;;;13.00;99.90;;;;;;4976040;28;20223;-67
2022/10/02 06:31:04;;;;;;;12.77;2.75;;;13.50;99.90;;;;;;4963737;28;20214;-66
2022/10/02 06:33:33;;;;;;;7.60;2.88;;;13.60;99.90;;;;;;4987025;28;20603;-68
2022/10/02 06:36:24;;;;;;;12.23;2.92;;;13.60;99.90;;;;;;4972485;28;20342;-67
2022/10/02 06:39:18;;;;;;;11.77;3.22;;;13.70;99.90;;;;;;4970854;28;20207;-66
2022/10/02 06:41:56;;;;;;;8.93;2.40;;;13.70;99.90;;;;;;4964374;28;20234;-67
2022/10/02 06:44:28;;;;;;;8.88;2.83;;;13.70;99.90;;;;;;4963675;28;20214;-67
2022/10/02 06:47:11;;;;;;;6.60;2.08;;;13.70;99.90;;;;;;4975862;28;20298;-67
2022/10/02 06:49:51;;;;;;;9.20;2.67;;;13.60;99.90;;;;;;4981531;28;20229;-66
2022/10/02 06:52:25;;;;;;;9.73;2.53;;;13.70;99.90;;;;;;4970866;28;20213;-66
2022/10/02 06:55:08;;;;;;;13.35;2.63;;;13.70;99.90;;;;;;4962630;28;20218;-66
2022/10/02 06:57:48;;;;;;;8.18;2.00;;;13.50;99.90;;;;;;4952486;28;20227;-66
2022/10/02 07:00:18;;;;;;;9.75;2.65;;;13.60;99.90;;;;;;4954216;28;20795;-66
2022/10/02 07:03:15;;;;;;;10.38;3.20;;;13.60;99.90;;;;;;4966905;28;20357;-66
2022/10/02 07:06:12;;;;;;;14.65;2.50;;;13.80;99.90;;;;;;4981502;28;20237;-66
2022/10/02 07:08:59;;;;;;;12.23;2.17;;;13.60;99.90;;;;;;4971715;28;20937;-66
2022/10/02 07:11:32;;;;;;;4.63;2.10;;;13.60;99.90;;;;;;4942518;28;20242;-67
2022/10/02 07:14:15;;;;;;;9.80;2.20;;;17.20;99.90;;;;;;4951030;28;20203;-66
2022/10/02 07:16:56;;;;;;;9.68;2.70;;;13.80;99.90;;;;;;4959762;28;20624;-66
2022/10/02 07:19:52;;;;;;;5.20;1.70;;;13.40;99.90;;;;;;4967180;28;20789;-66
2022/10/02 07:22:40;;;;;;;13.30;2.38;;;13.80;99.90;;;;;;4946521;28;20222;-66
2022/10/02 07:25:22;;;;;;;6.95;1.88;;;13.80;99.90;;;;;;4942784;28;20231;-67
2022/10/02 07:27:59;;;;;;;6.22;1.95;;;13.80;99.90;;;;;;4963681;28;20917;-66
2022/10/02 07:30:37;;;;;;;19.27;2.67;;;13.70;99.90;;;;;;4938405;28;20202;-66
2022/10/02 07:33:11;;;;;;;7.93;2.20;;;13.90;99.90;;;;;;4943978;28;20214;-67
2022/10/02 07:35:46;;;;;;;9.35;1.83;;;13.90;99.90;;;;;;4968431;28;20218;-68
2022/10/02 07:38:45;;;;;;;9.13;2.10;;;13.80;99.90;;;;;;4928247;28;20226;-68
2022/10/02 07:41:42;;;;;;;8.23;1.77;;;14.00;99.90;;;;;;4943925;28;20266;-67
2022/10/02 07:44:19;;;;;;;11.40;3.35;;;14.20;99.90;;;;;;4931239;28;20730;-68
2022/10/02 07:46:55;;;;;;;14.75;2.20;;;14.10;99.90;;;;;;4964936;28;20242;-67
2022/10/02 07:49:37;;;;;;;11.27;2.28;;;14.10;99.90;;;;;;4958350;28;20228;-67
2022/10/02 07:52:16;;;;;;;9.38;2.00;;;14.10;99.90;;;;;;4976523;28;20207;-67
2022/10/02 07:54:58;;;;;;;8.82;2.20;;;14.20;99.90;;;;;;4960670;28;20217;-67
2022/10/02 07:57:34;;;;;;;9.90;1.92;;;14.40;99.90;;;;;;4940471;28;20346;-67
2022/10/02 08:00:07;;;;;;;11.65;2.50;;;14.30;99.90;;;;;;4946672;28;20283;-67
2022/10/02 08:02:40;;;;;;;9.15;2.53;;;14.40;99.90;;;;;;4947280;28;20234;-67
2022/10/02 08:05:17;;;;;;;6.80;2.08;;;14.40;99.90;;;;;;4956641;28;20214;-67
2022/10/02 08:07:49;;;;;;;7.13;1.98;;;14.20;99.90;;;;;;4981676;28;20620;-68
2022/10/02 08:10:21;;;;;;;7.90;1.73;;;14.60;99.90;;;;;;4949530;28;20203;-67
2022/10/02 08:12:55;;;;;;;6.45;1.75;;;14.50;99.90;;;;;;4948965;28;20319;-67
2022/10/02 08:15:24;;;;;;;9.10;2.00;;;14.50;99.90;;;;;;4934178;28;20341;-67
2022/10/02 08:17:54;;;;;;;9.55;2.20;;;;;;;;;;4980048;28;20861;-67
2022/10/02 08:20:27;;;;;;;8.35;1.92;;;14.50;99.90;;;;;;4963015;28;20608;-67
2022/10/02 08:23:02;;;;;;;13.30;2.50;;;14.50;99.90;;;;;;4975857;28;20242;-67
2022/10/02 08:25:37;;;;;;;12.07;2.30;;;14.80;99.90;;;;;;4961184;28;20229;-67
2022/10/02 08:28:06;;;;;;;8.13;1.73;;;;;;;;;;4951913;28;20258;-68
2022/10/02 08:30:33;;;;;;;7.28;2.00;;;13.70;99.90;;;;;;4928386;28;20232;-68
2022/10/02 08:33:02;;;;;;;8.93;2.13;;;14.60;99.90;;;;;;4978008;28;20234;-68
2022/10/02 08:35:39;;;;;;;11.80;2.28;;;14.50;99.90;;;;;;4959826;28;20263;-68
2022/10/02 08:38:15;;;;;;;5.07;1.75;;;14.50;99.90;;;;;;4983154;28;20309;-67
2022/10/02 08:41:19;;;;;;;9.85;1.75;;;14.40;99.90;;;;;;4955736;28;20226;-67
2022/10/02 08:44:07;;;;;;;7.97;3.10;;;;;;;;;;4953311;28;20978;-67
2022/10/02 08:47:04;;;;;;;7.18;1.77;;;14.30;99.90;;;;;;4958624;28;20222;-68
2022/10/02 08:50:31;;;;;;;6.03;1.75;;;14.30;99.90;;;;;;4970735;28;20222;-68
2022/10/02 08:53:37;;;;;;;3.75;0.93;;;14.30;99.90;;;;;;4950150;28;20233;-67
2022/10/02 08:56:19;;;;;;;4.60;1.50;;;14.30;99.90;;;;;;4968347;28;20226;-67
2022/10/02 08:59:20;;;;;;;6.55;1.45;;;14.40;99.90;;;;;;4945420;28;20237;-67
2022/10/02 09:02:26;;;;;;;4.57;1.23;;;14.20;99.90;;;;;;4936495;28;20253;-67
2022/10/02 09:05:29;;;;;;;3.08;0.98;;;14.20;99.90;;;;;;4943722;28;20226;-67
2022/10/02 09:08:41;;;;;;;4.65;1.50;;;14.30;99.90;;;;;;4985609;28;20684;-67
2022/10/02 09:11:34;;;;;;;5.88;1.60;;;14.40;99.90;;;;;;4931940;28;20723;-67
2022/10/02 09:14:44;;;;;;;3.60;1.52;;;14.20;99.90;;;;;;4977653;28;20942;-67
2022/10/02 09:17:19;;;;;;;5.38;1.40;;;14.30;99.90;;;;;;4928088;28;20233;-68
2022/10/02 09:19:57;;;;;;;7.10;1.50;;;14.30;99.90;;;;;;4963896;28;20218;-67
2022/10/02 09:22:52;;;;;;;6.05;2.13;;;14.30;99.90;;;;;;4948523;28;20609;-67
2022/10/02 09:25:34;;;;;;;10.77;1.70;;;14.30;99.90;;;;;;4971377;28;20209;-67
2022/10/02 09:28:48;;;;;;;4.85;1.60;;;14.30;99.90;;;;;;4967719;28;20298;-67
2022/10/02 09:31:45;;;;;;;3.03;1.35;;;14.30;99.90;;;;;;4905646;28;20232;-67
2022/10/02 09:34:35;;;;;;;7.70;1.63;;;14.10;99.90;;;;;;4970018;28;20215;-67
2022/10/02 09:37:49;;;;;;;4.97;1.60;;;14.10;99.90;;;;;;4955489;28;20322;-68
2022/10/02 09:40:52;;;;;;;8.10;1.85;;;14.50;99.90;;;;;;4973909;28;20227;-67
2022/10/02 09:43:50;;;;;;;5.07;1.35;;;14.50;99.90;;;;;;4970122;28;20288;-67
2022/10/02 09:46:55;;;;;;;5.78;2.40;;;14.50;99.90;;;;;;4966060;28;20315;-67
2022/10/02 09:49:51;;;;;;;10.30;1.38;;;14.50;99.90;;;;;;4898798;28;20228;-67
2022/10/02 09:52:39;;;;;;;3.20;1.13;;;;;;;;;;4962110;28;20218;-67
2022/10/02 09:55:41;;;;;;;6.78;1.45;;;14.50;99.90;;;;;;4965480;28;20223;-68
2022/10/02 09:58:42;;;;;;;10.73;2.72;;;14.70;99.90;;;;;;4965505;28;20224;-67
2022/10/02 10:01:39;;;;;;;5.38;1.42;;;14.50;99.90;;;;;;4948452;28;20228;-67
2022/10/02 10:04:27;;;;;;;1.75;1.30;;;14.50;99.90;;;;;;4949523;28;20227;-67
2022/10/02 10:07:21;;;;;;;2.65;1.13;;;14.60;99.90;;;;;;4955765;28;20231;-67
2022/10/02 10:10:24;;;;;;;6.32;1.83;;;14.60;99.90;;;;;;4968252;28;20708;-67
2022/10/02 10:13:21;;;;;;;5.40;1.67;;;14.60;99.90;;;;;;4962603;28;20922;-66
2022/10/02 10:16:29;;;;;;;6.50;1.20;;;12.60;99.90;;;;;;4954212;28;20223;-68
2022/10/02 10:19:31;;;;;;;8.50;1.83;;;14.80;99.90;;;;;;4937994;28;21177;-68
2022/10/02 10:22:47;;;;;;;6.95;1.45;;;14.80;99.90;;;;;;4948882;28;20238;-67
2022/10/02 10:25:41;;;;;;;5.85;1.65;;;14.70;99.90;;;;;;4962440;28;20233;-66
2022/10/02 10:28:38;;;;;;;4.25;1.08;;;14.90;99.90;;;;;;4964657;28;20223;-67
2022/10/02 10:31:33;;;;;;;6.63;1.55;;;14.80;99.90;;;;;;4966725;28;20859;-67
2022/10/02 10:40:14;;;;;;;6.95;1.33;;;14.80;99.90;;;;;;4977719;28;20324;-67
2022/10/02 10:43:22;;;;;;;7.15;1.65;;;14.90;99.90;;;;;;4964826;28;20233;-68
2022/10/02 10:46:11;;;;;;;7.00;1.83;;;14.90;99.90;;;;;;4882060;29;20230;-67
2022/10/02 10:49:20;;;;;;;6.65;1.60;;;15.00;99.90;;;;;;4973877;28;20762;-67
2022/10/02 10:51:49;;;;;;;5.75;1.30;;;;;;;;;;4965126;28;20217;-67
2022/10/02 10:54:47;;;;;;;7.57;1.75;;;14.90;99.90;;;;;;4991325;28;20248;-67
2022/10/02 10:57:28;;;;;;;7.60;1.73;;;15.10;99.90;;;;;;5000603;28;20229;-67
2022/10/02 11:00:17;;;;;;;3.90;1.50;;;15.20;99.90;;;;;;4981026;28;20466;-66
2022/10/02 11:03:21;;;;;;;9.50;1.88;;;15.20;99.90;;;;;;4973013;28;20750;-66
2022/10/02 11:06:14;;;;;;;7.50;1.50;;;15.40;99.90;;;;;;4921546;28;20200;-68
2022/10/02 11:09:19;;;;;;;11.57;2.78;;;15.50;99.90;;;;;;4982882;28;20198;-64
2022/10/02 11:11:57;;;;;;;11.00;2.13;;;15.50;99.90;;;;;;4994308;28;20205;-65
2022/10/02 11:14:34;;;;;;;8.13;1.75;;;15.70;99.90;;;;;;4989309;28;20209;-65
2022/10/02 11:17:28;;;;;;;11.52;2.38;;;15.80;99.90;;;;;;4985289;28;20319;-65
2022/10/02 11:20:29;;;;;;;6.78;2.03;;;15.70;99.90;;;;;;4980013;28;20280;-65
2022/10/02 11:23:33;;;;;;;9.77;2.20;;;15.80;99.90;;;;;;4910347;28;22781;-65
2022/10/02 11:26:23;;;;;;;11.38;2.45;;;15.80;99.80;;;;;;4961250;28;20395;-68
2022/10/02 11:29:33;;;;;;;6.35;1.83;;;15.90;99.90;;;;;;4989043;28;20221;-67
2022/10/02 11:32:27;;;;;;;9.05;1.75;;;15.90;97.00;;;;;;4912394;28;20236;-67
2022/10/02 11:35:18;;;;;;;13.43;1.85;;;16.10;96.70;;;;;;4986564;28;21622;-66
2022/10/02 11:38:00;;;;;;;11.75;2.22;;;15.90;99.90;;;;;;4988924;28;20206;-66
2022/10/02 11:40:34;;;;;;;9.05;2.17;;;16.20;90.40;;;;;;4993783;28;20226;-65
2022/10/02 11:43:24;;;;;;;3.67;1.30;;;16.10;90.00;;;;;;5005819;28;20239;-65
2022/10/02 11:46:11;;;;;;;7.50;1.52;;;16.40;85.30;;;;;;4996834;28;20210;-65
2022/10/02 11:49:05;;;;;;;4.15;1.05;;;15.80;79.10;;;;;;5000220;28;20202;-65
2022/10/02 11:52:07;;;;;;;13.50;2.25;;;16.00;92.00;;;;;;4998205;28;20209;-65
2022/10/02 11:54:53;;;;;;;3.65;1.25;;;16.40;91.50;;;;;;4975336;28;20252;-64
2022/10/02 11:57:39;;;;;;;9.68;2.03;;;16.40;83.70;;;;;;5007561;28;20197;-65
2022/10/02 12:00:14;;;;;;;4.60;2.05;;;16.40;87.70;;;;;;5001332;28;20619;-65
2022/10/02 12:02:51;;;;;;;8.75;2.10;;;16.00;83.30;;;;;;4996030;28;20201;-65
2022/10/02 12:05:37;;;;;;;9.05;2.03;;;16.30;90.70;;;;;;4984879;28;20229;-65
2022/10/02 12:08:13;;;;;;;7.90;1.58;;;16.40;91.00;;;;;;5008504;28;20190;-65
2022/10/02 12:10:51;;;;;;;10.82;2.15;;;16.70;93.00;;;;;;4975660;28;20226;-64
2022/10/02 12:13:51;;;;;;;4.60;1.55;;;16.50;90.70;;;;;;5004757;28;20466;-65
2022/10/02 12:16:25;;;;;;;10.55;2.15;;;16.60;82.80;;;;;;4985897;28;20208;-66
2022/10/02 12:19:06;;;;;;;9.65;2.03;;;16.70;82.20;;;;;;4997584;28;20213;-66
2022/10/02 12:27:41;;;;;;;14.32;2.00;;;16.40;89.90;;;;;;5004958;28;20206;-65
2022/10/02 12:30:12;;;;;;;10.57;1.83;;;15.90;98.70;;;;;;4998431;28;20299;-66
2022/10/02 12:32:53;;;;;;;12.02;2.03;;;16.00;99.30;;;;;;4995737;28;20206;-65
2022/10/02 12:35:32;;;;;;;11.20;1.70;;;15.90;99.90;;;;;;5004302;28;20246;-66
2022/10/02 12:38:15;;;;;;;9.10;2.10;;;15.90;99.90;;;;;;4979776;28;20666;-65
2022/10/02 12:40:51;;;;;;;8.80;2.13;;;15.80;99.90;;;;;;4986515;28;20194;-66
2022/10/02 12:43:49;;;;;;;8.15;1.70;;;15.30;99.90;;;;;;4997469;28;20217;-65
2022/10/02 12:46:58;;;;;;;16.30;2.20;;;15.40;99.90;;;;;;5001709;28;20297;-65
2022/10/02 12:49:39;;;;;;;5.45;2.40;;;15.10;99.90;;;;;;4997888;28;20246;-65
2022/10/02 12:52:39;;;;;;;7.25;1.73;;;15.20;99.90;;;;;;4985995;28;20202;-65
2022/10/02 12:55:46;;;;;;;5.65;1.30;;;15.10;99.90;;;;;;4995385;28;20195;-65
2022/10/02 12:58:24;;;;;;;6.35;1.77;;;15.80;99.90;;;;;;4972681;28;20233;-65
2022/10/02 13:01:38;;;;;;;2.80;1.40;;;15.20;99.90;;;;;;5005490;28;20202;-65
2022/10/02 13:04:37;;;;;;;8.00;1.60;;;15.50;99.90;;;;;;4996957;28;20647;-65
2022/10/02 13:07:43;;;;;;;10.73;2.28;;;15.60;99.90;;;;;;5007236;28;20229;-65
2022/10/02 13:10:17;;;;;;;9.18;1.88;;;15.80;99.90;;;;;;4997917;28;20206;-64
2022/10/02 13:13:00;;;;;;;8.23;1.92;;;15.90;99.90;;;;;;4968627;28;20343;-66
2022/10/02 13:15:38;;;;;;;5.00;1.13;;;15.90;99.90;;;;;;4995067;28;20272;-65
2022/10/02 13:18:25;;;;;;;5.93;1.38;;;15.90;99.90;;;;;;4993461;28;20210;-65
2022/10/02 13:21:03;;;;;;;5.78;1.70;;;15.70;99.90;;;;;;5007726;28;20680;-64
2022/10/02 13:23:39;;;;;;;5.03;1.45;;;15.90;99.90;;;;;;5009044;28;20730;-65
2022/10/02 13:26:14;;;;;;;13.82;1.88;;;14.80;99.90;;;;;;4997552;28;20337;-65
2022/10/02 13:29:08;;;;;;;5.80;1.48;;;15.70;99.90;;;;;;5008934;28;20577;-64
2022/10/02 13:31:51;;;;;;;8.52;1.75;;;15.90;99.90;;;;;;4994399;28;20317;-65
2022/10/02 13:34:36;;;;;;;5.95;1.50;;;15.90;99.90;;;;;;4970223;28;21931;-64
2022/10/02 13:37:18;;;;;;;13.15;2.08;;;15.70;99.90;;;;;;5001711;28;20210;-65
2022/10/02 13:40:12;;;;;;;7.88;2.25;;;15.70;99.90;;;;;;5005888;28;20206;-64
2022/10/02 13:42:50;;;;;;;5.60;1.80;;;15.60;99.90;;;;;;5002493;28;20222;-64
2022/10/02 13:45:22;;;;;;;6.68;1.92;;;15.50;99.90;;;;;;5006152;28;20236;-64
2022/10/02 13:47:58;;;;;;;5.80;1.50;;;15.50;99.90;;;;;;4973196;28;20214;-65
2022/10/02 13:50:40;;;;;;;10.13;1.85;;;15.30;99.90;;;;;;5001355;28;20286;-64
2022/10/02 13:53:39;;;;;;;9.52;2.13;;;15.50;99.90;;;;;;5001505;28;20216;-65
2022/10/02 13:56:16;;;;;;;13.07;2.28;;;15.50;99.90;;;;;;4939918;28;20202;-64
2022/10/02 13:59:04;;;;;;;10.10;1.80;;;15.60;99.90;;;;;;5003786;28;20206;-64
2022/10/02 14:01:46;;;;;;;14.73;2.22;;;15.80;99.90;;;;;;4995221;28;20803;-64
2022/10/02 14:04:40;;;;;;;4.63;1.83;;;15.70;99.90;;;;;;4974011;28;20267;-64
2022/10/02 14:07:17;;;;;;;7.13;1.42;;;15.60;99.90;;;;;;5001856;28;20214;-64
2022/10/02 14:09:53;;;;;;;5.65;1.70;;;15.80;99.90;;;;;;4988509;28;20308;-65
2022/10/02 14:12:27;;;;;;;9.27;1.88;;;15.70;99.90;;;;;;4994956;28;20222;-65